Time;durP1;ratioP1;P1;durP2;ratioP2;P2;SDS_P1;SDS_P2;PMS_P1;PMS_P2;Temp;Humidity;BMP_temperature;BMP_pressure;BME280_temperature;BME280_humidity;BME280_pressure;Samples;Min_cycle;Max_cycle;Signal;HPM_P1;HPM_P2
2024/02/16 00:01:41;;;;;;;34.20;20.00;;;;;;;7.80;85.70;100275.57;217310;1260;140512;-72
2024/02/16 00:06:48;;;;;;;39.40;20.40;;;;;;;7.73;85.87;100279.06;218774;1262;140985;-71
2024/02/16 00:11:53;;;;;;;34.80;19.70;;;;;;;7.65;85.96;100275.47;219206;1260;140654;-71
2024/02/16 00:16:58;;;;;;;30.40;19.60;;;;;;;7.57;85.98;100276.41;219784;1258;140265;-72
2024/02/16 00:22:02;;;;;;;28.50;19.50;;;;;;;7.50;86.53;100282.14;219744;1257;141238;-72
2024/02/16 00:27:06;;;;;;;33.30;20.40;;;;;;;7.44;86.20;100284.81;217054;1262;140213;-73
2024/02/16 00:32:11;;;;;;;33.90;20.20;;;;;;;7.37;86.18;100288.42;217303;1262;140815;-71
2024/02/16 00:37:15;;;;;;;27.90;18.60;;;;;;;7.27;86.89;100284.95;217398;1259;140657;-71
2024/02/16 00:42:19;;;;;;;30.00;17.90;;;;;;;7.19;86.72;100286.21;217057;1259;140074;-71
2024/02/16 00:47:27;;;;;;;28.10;17.10;;;;;;;7.10;86.74;100282.72;218200;1258;141031;-71
2024/02/16 00:52:31;;;;;;;29.90;18.00;;;;;;;7.01;86.87;100280.66;217278;1259;142763;-71
2024/02/16 00:57:35;;;;;;;32.30;20.60;;;;;;;6.91;87.06;100277.20;217854;1262;140739;-72
2024/02/16 01:02:40;;;;;;;28.70;18.40;;;;;;;6.80;87.02;100276.84;217162;1259;141165;-70
2024/02/16 01:07:45;;;;;;;33.10;18.90;;;;;;;6.69;87.20;100280.14;217095;1262;140852;-71
2024/02/16 01:12:51;;;;;;;25.60;17.20;;;;;;;6.59;87.32;100281.23;216832;1258;140781;-70
2024/02/16 01:17:56;;;;;;;30.20;18.70;;;;;;;6.48;87.49;100279.61;216490;1260;140636;-70
2024/02/16 01:23:00;;;;;;;30.60;19.70;;;;;;;6.38;87.64;100283.16;216725;1262;139958;-70
2024/02/16 01:28:05;;;;;;;29.00;20.50;;;;;;;6.28;87.43;100279.04;217783;1261;141866;-69
2024/02/16 01:33:10;;;;;;;29.50;16.80;;;;;;;6.15;87.64;100278.54;217060;1259;140984;-73
2024/02/16 01:38:14;;;;;;;25.50;17.30;;;;;;;6.03;87.69;100280.90;216951;1260;142339;-71
2024/02/16 01:43:21;;;;;;;26.50;18.40;;;;;;;5.93;88.26;100281.59;216901;1257;140123;-71
2024/02/16 01:48:26;;;;;;;27.30;18.00;;;;;;;5.84;88.20;100283.63;217030;1261;140790;-70
2024/02/16 01:53:31;;;;;;;22.20;17.10;;;;;;;5.74;88.25;100284.66;217857;1260;140146;-71
2024/02/16 01:58:35;;;;;;;22.70;17.60;;;;;;;5.66;88.35;100281.61;217137;1259;140735;-73
2024/02/16 02:03:38;;;;;;;34.50;19.10;;;;;;;5.59;88.46;100287.96;216782;1262;140469;-74
2024/02/16 02:08:42;;;;;;;33.70;20.00;;;;;;;5.46;88.43;100286.22;217595;1260;140245;-73
2024/02/16 02:13:47;;;;;;;33.40;22.40;;;;;;;5.33;88.82;100281.08;217265;1262;141235;-72
2024/02/16 02:18:51;;;;;;;31.00;19.10;;;;;;;5.25;89.32;100281.05;217890;1258;155271;-72
2024/02/16 02:23:55;;;;;;;26.90;19.20;;;;;;;5.18;89.16;100277.18;217120;1262;139883;-72
2024/02/16 02:28:59;;;;;;;32.10;22.40;;;;;;;5.13;90.07;100279.55;217074;1260;141131;-74
2024/02/16 02:34:05;;;;;;;32.50;20.30;;;;;;;5.09;89.82;100277.73;217019;1258;140146;-72
2024/02/16 02:39:32;;;;;;;43.10;23.60;;;;;;;5.07;90.11;100277.19;216956;1262;142768;-71
2024/02/16 02:44:36;;;;;;;30.50;19.80;;;;;;;5.05;90.20;100275.40;216776;1262;140101;-70
2024/02/16 02:49:40;;;;;;;33.20;21.40;;;;;;;5.06;90.75;100276.34;218061;1261;140302;-70
2024/02/16 02:54:45;;;;;;;31.10;20.90;;;;;;;5.07;91.04;100274.09;216707;1262;140125;-69
2024/02/16 02:59:49;;;;;;;32.30;21.10;;;;;;;5.05;90.64;100272.88;217577;1262;140718;-69
2024/02/16 03:04:54;;;;;;;38.40;22.80;;;;;;;4.99;90.89;100272.96;216922;1262;140744;-69
2024/02/16 03:09:59;;;;;;;38.50;22.50;;;;;;;4.92;91.31;100275.15;216775;1261;140699;-69
2024/02/16 03:15:05;;;;;;;33.80;22.40;;;;;;;4.86;91.21;100276.77;217785;1260;141185;-69
2024/02/16 03:20:21;;;;;;;37.90;23.00;;;;;;;4.81;91.31;100274.99;217605;1258;140041;-69
2024/02/16 03:25:29;;;;;;;34.20;22.10;;;;;;;4.76;91.17;100270.41;216896;1261;139992;-70
2024/02/16 03:30:33;;;;;;;38.50;22.80;;;;;;;4.72;91.49;100275.45;217037;1262;140370;-69
2024/02/16 03:35:40;;;;;;;34.50;20.30;;;;;;;4.67;91.87;100274.67;216553;1257;140161;-68
2024/02/16 03:40:48;;;;;;;35.90;21.90;;;;;;;4.64;91.59;100266.92;217864;1262;140866;-71
2024/02/16 03:45:52;;;;;;;32.30;22.50;;;;;;;4.61;91.85;100271.21;217254;1262;140189;-69
2024/02/16 03:50:57;;;;;;;39.50;22.60;;;;;;;4.59;92.06;100268.23;218698;1260;142689;-69
2024/02/16 03:56:03;;;;;;;37.40;23.40;;;;;;;4.56;91.87;100268.17;217704;1257;211148;-68
2024/02/16 04:01:07;;;;;;;38.60;24.20;;;;;;;4.53;92.18;100268.70;219691;1257;209018;-69
2024/02/16 04:06:12;;;;;;;36.10;21.10;;;;;;;4.53;92.41;100269.84;219720;1257;152753;-69
2024/02/16 04:11:17;;;;;;;32.40;22.50;;;;;;;4.56;92.28;100272.23;219785;1258;140591;-69
2024/02/16 04:16:24;;;;;;;47.80;27.50;;;;;;;4.57;91.79;100269.81;219764;1257;140794;-68
2024/02/16 04:21:29;;;;;;;49.80;28.00;;;;;;;4.57;91.85;100264.48;219693;1257;140992;-69
2024/02/16 04:26:34;;;;;;;42.80;27.10;;;;;;;4.55;91.88;100257.55;219147;1261;140354;-70
2024/02/16 04:31:45;;;;;;;44.40;25.70;;;;;;;4.55;92.26;100257.38;218268;1260;142650;-70
2024/02/16 04:36:48;;;;;;;46.10;28.10;;;;;;;4.55;92.18;100256.95;218008;1262;439964;-71
2024/02/16 04:41:53;;;;;;;41.90;27.30;;;;;;;4.56;92.31;100253.70;216762;1260;139755;-69
2024/02/16 04:46:58;;;;;;;46.70;28.70;;;;;;;4.57;92.58;100258.19;219055;1259;140625;-69
2024/02/16 04:52:03;;;;;;;45.00;28.10;;;;;;;4.55;92.53;100256.23;217073;1258;141818;-69
2024/02/16 04:57:07;;;;;;;38.30;26.30;;;;;;;4.54;92.50;100251.08;216989;1259;140103;-69
2024/02/16 05:02:11;;;;;;;38.90;26.70;;;;;;;4.53;92.65;100247.86;217813;1262;140744;-68
2024/02/16 05:07:15;;;;;;;41.00;24.00;;;;;;;4.52;92.67;100243.58;216613;1262;140118;-69
2024/02/16 05:12:20;;;;;;;41.00;26.40;;;;;;;4.51;92.56;100247.27;216336;1261;140353;-69
2024/02/16 05:17:24;;;;;;;33.60;23.90;;;;;;;4.48;92.60;100246.04;216952;1260;139700;-67
2024/02/16 05:22:28;;;;;;;38.20;24.00;;;;;;;4.44;92.90;100246.91;217168;1261;140790;-68
2024/02/16 05:27:35;;;;;;;42.20;25.60;;;;;;;4.40;92.80;100245.08;216542;1261;140321;-68
2024/02/16 05:32:39;;;;;;;49.10;27.00;;;;;;;4.35;92.75;100244.06;216556;1262;141260;-68
2024/02/16 05:37:51;;;;;;;38.70;25.40;;;;;;;4.33;93.10;100240.91;216971;1261;142275;-67
2024/02/16 05:42:57;;;;;;;38.30;24.50;;;;;;;4.31;93.36;100246.04;219043;1261;140372;-68
2024/02/16 05:48:03;;;;;;;43.90;24.00;;;;;;;4.36;93.49;100242.54;217154;1258;139999;-68
2024/02/16 05:53:10;;;;;;;44.10;28.70;;;;;;;4.45;93.78;100244.82;219042;1260;140400;-68
2024/02/16 05:58:14;;;;;;;38.70;24.30;;;;;;;4.52;93.57;100245.57;219485;1259;141710;-69
2024/02/16 06:03:18;;;;;;;37.70;24.30;;;;;;;4.59;93.80;100251.25;219604;1260;140573;-69
2024/02/16 06:08:23;;;;;;;43.80;24.70;;;;;;;4.69;93.78;100256.10;219711;1259;141213;-70
2024/02/16 06:13:31;;;;;;;43.60;24.60;;;;;;;4.79;93.86;100252.46;219663;1260;140984;-70
2024/02/16 06:18:36;;;;;;;41.60;24.70;;;;;;;4.88;93.73;100256.50;218908;1258;140478;-69
2024/02/16 06:23:47;;;;;;;37.50;24.30;;;;;;;4.98;93.39;100255.02;218210;1259;141848;-69
2024/02/16 06:28:56;;;;;;;39.00;26.90;;;;;;;5.07;93.50;100260.83;219265;1260;140670;-69
2024/02/16 06:34:01;;;;;;;31.70;21.20;;;;;;;5.14;93.34;100262.51;217386;1260;140508;-68
2024/02/16 06:39:05;;;;;;;39.40;25.70;;;;;;;5.19;93.37;100263.37;217922;1260;140631;-69
2024/02/16 06:44:11;;;;;;;40.90;25.20;;;;;;;5.27;93.65;100260.91;217488;1261;140819;-69
2024/02/16 06:49:15;;;;;;;32.80;22.00;;;;;;;5.38;93.59;100260.42;216614;1262;140417;-68
2024/02/16 06:54:19;;;;;;;39.80;23.50;;;;;;;5.48;93.51;100259.95;217333;1261;140154;-70
2024/02/16 06:59:23;;;;;;;37.40;20.60;;;;;;;5.59;93.59;100260.86;217095;1263;140587;-69
2024/02/16 07:04:28;;;;;;;32.80;19.00;;;;;;;5.72;93.91;100260.27;217018;1260;140626;-69
2024/02/16 07:09:32;;;;;;;39.70;24.30;;;;;;;5.85;93.81;100258.61;217772;1259;142651;-70
2024/02/16 07:14:37;;;;;;;37.70;22.90;;;;;;;5.98;93.38;100256.67;216809;1258;141609;-70
2024/02/16 07:19:41;;;;;;;41.20;21.00;;;;;;;6.13;93.67;100259.14;216919;1260;141247;-70
2024/02/16 07:24:46;;;;;;;36.00;21.90;;;;;;;6.24;93.41;100264.77;217406;1259;140578;-69
2024/02/16 07:29:50;;;;;;;31.30;21.20;;;;;;;6.38;93.35;100264.30;216709;1262;142222;-70
2024/02/16 07:34:54;;;;;;;27.40;20.40;;;;;;;6.47;93.20;100265.46;216789;1260;141189;-69
2024/02/16 07:39:59;;;;;;;39.10;25.50;;;;;;;6.52;92.84;100269.73;218034;1259;140561;-70
2024/02/16 07:45:05;;;;;;;30.20;19.80;;;;;;;6.55;92.66;100263.03;217170;1258;140857;-68
2024/02/16 07:50:09;;;;;;;31.40;21.80;;;;;;;6.57;92.30;100258.00;218156;1259;140295;-69
2024/02/16 07:55:14;;;;;;;29.90;19.50;;;;;;;6.56;92.01;100260.06;217699;1259;140213;-71
2024/02/16 08:00:18;;;;;;;40.40;22.60;;;;;;;6.76;92.60;100262.73;218066;1258;141676;-70
2024/02/16 08:05:24;;;;;;;33.50;21.10;;;;;;;7.25;93.37;100265.39;217460;1261;140365;-69
2024/02/16 08:10:28;;;;;;;34.60;22.00;;;;;;;7.59;92.94;100259.91;218250;1259;140585;-72
2024/02/16 08:15:33;;;;;;;32.70;20.80;;;;;;;7.86;92.50;100257.64;218395;1259;140117;-72
2024/02/16 08:20:37;;;;;;;30.30;18.60;;;;;;;8.16;92.09;100254.89;217308;1259;140255;-71
2024/02/16 08:25:41;;;;;;;31.60;18.10;;;;;;;8.40;91.95;100248.42;216967;1259;140578;-72
2024/02/16 08:30:45;;;;;;;21.60;15.20;;;;;;;8.56;91.58;100244.86;217167;1259;141100;-72
2024/02/16 08:35:50;;;;;;;25.50;17.60;;;;;;;8.72;91.48;100244.40;216859;1262;140469;-72
2024/02/16 08:40:54;;;;;;;21.50;14.10;;;;;;;8.91;91.07;100243.90;217251;1259;141683;-74
2024/02/16 08:45:58;;;;;;;25.00;14.00;;;;;;;9.14;90.90;100239.46;217452;1259;140407;-71
2024/02/16 08:51:02;;;;;;;22.60;15.30;;;;;;;9.39;90.58;100241.40;216959;1260;141062;-72
2024/02/16 08:56:12;;;;;;;25.00;14.50;;;;;;;9.67;90.24;100240.27;217011;1258;141077;-71
2024/02/16 09:01:17;;;;;;;25.60;16.70;;;;;;;9.98;89.78;100240.60;217900;1258;141325;-75
2024/02/16 09:06:22;;;;;;;23.00;14.40;;;;;;;10.21;88.90;100238.99;216723;1259;141395;-75
2024/02/16 09:11:27;;;;;;;22.90;15.60;;;;;;;10.42;88.38;100235.27;216670;1259;140492;-73
2024/02/16 09:16:32;;;;;;;19.80;14.30;;;;;;;10.65;87.95;100235.31;216457;1259;141431;-73
2024/02/16 09:21:37;;;;;;;24.40;13.30;;;;;;;10.82;86.69;100231.45;217116;1259;141693;-74
2024/02/16 09:26:41;;;;;;;20.80;12.00;;;;;;;10.89;86.12;100232.59;216523;1261;141708;-73
2024/02/16 09:31:49;;;;;;;24.80;14.00;;;;;;;11.02;85.28;100228.18;217634;1259;141055;-71
2024/02/16 09:36:53;;;;;;;16.30;11.20;;;;;;;11.16;85.15;100226.05;216408;1260;141820;-71
2024/02/16 09:41:58;;;;;;;15.60;10.70;;;;;;;11.34;84.64;100227.00;217027;1262;142871;-72
2024/02/16 09:47:03;;;;;;;18.00;12.80;;;;;;;11.55;84.38;100223.79;216405;1259;142904;-72
2024/02/16 09:52:13;;;;;;;15.40;9.50;;;;;;;11.74;83.69;100232.95;217477;1260;141265;-71
2024/02/16 09:57:18;;;;;;;24.50;13.70;;;;;;;11.92;83.09;100226.77;216539;1259;141453;-72
2024/02/16 10:02:23;;;;;;;13.10;10.90;;;;;;;12.05;82.68;100228.83;216776;1259;140670;-71
2024/02/16 10:07:33;;;;;;;14.80;10.80;;;;;;;12.18;81.86;100227.46;219578;1259;140726;-73
2024/02/16 10:12:37;;;;;;;15.00;12.00;;;;;;;12.27;81.30;100225.27;219525;1259;140816;-75
2024/02/16 10:17:42;;;;;;;17.30;13.00;;;;;;;12.48;81.16;100217.38;219596;1258;140748;-74
2024/02/16 10:22:47;;;;;;;15.90;11.80;;;;;;;12.72;80.90;100212.58;217015;1259;142494;-72
2024/02/16 10:27:55;;;;;;;17.80;12.10;;;;;;;12.95;80.13;100208.31;216851;1258;141836;-71
2024/02/16 10:32:59;;;;;;;16.50;12.60;;;;;;;13.07;79.45;100196.89;216623;1259;141082;-71
2024/02/16 10:38:06;;;;;;;16.20;11.90;;;;;;;13.17;78.87;100194.18;216521;1260;140451;-73
2024/02/16 10:43:13;;;;;;;;;;;;;;;13.29;78.41;100196.51;216667;1259;140783;-70
2024/02/16 10:48:18;;;;;;;12.50;7.70;;;;;;;13.40;78.19;100194.13;217002;1262;126922;-71
2024/02/16 10:53:30;;;;;;;10.30;7.20;;;;;;;13.60;77.58;100186.15;216724;1258;141289;-71
2024/02/16 10:58:34;;;;;;;7.70;6.00;;;;;;;13.74;76.91;100183.22;216284;1259;141438;-71
2024/02/16 11:03:39;;;;;;;8.20;6.50;;;;;;;13.81;76.03;100178.80;216754;1258;140925;-72
2024/02/16 11:08:44;;;;;;;11.40;7.60;;;;;;;13.88;75.62;100170.81;216779;1259;140558;-71
2024/02/16 11:13:48;;;;;;;8.00;6.90;;;;;;;13.97;75.40;100165.06;216319;1259;140624;-71
2024/02/16 11:18:53;;;;;;;8.30;5.40;;;;;;;14.02;74.21;100162.30;216538;1259;139963;-70
2024/02/16 11:24:07;;;;;;;9.70;7.60;;;;;;;13.97;73.86;100159.48;216779;1258;141182;-72
2024/02/16 11:29:12;;;;;;;10.00;7.00;;;;;;;13.97;73.55;100154.18;216907;1259;140231;-74
2024/02/16 11:34:25;;;;;;;9.80;6.60;;;;;;;14.09;73.52;100148.34;217806;1259;141938;-72
2024/02/16 11:39:31;;;;;;;12.40;7.20;;;;;;;14.12;73.17;100143.60;218674;1258;140455;-70
2024/02/16 11:44:36;;;;;;;11.40;7.60;;;;;;;14.31;73.22;100133.73;219550;1257;139685;-72
2024/02/16 11:49:40;;;;;;;11.70;6.40;;;;;;;14.35;72.20;100128.20;216631;1259;139793;-72
2024/02/16 11:54:44;;;;;;;6.90;5.90;;;;;;;14.34;71.70;100125.46;216853;1259;140915;-72
2024/02/16 11:59:49;;;;;;;12.80;6.50;;;;;;;14.29;71.37;100122.81;216671;1258;139493;-71
2024/02/16 12:05:01;;;;;;;8.40;6.30;;;;;;;14.30;71.46;100118.27;216623;1262;140324;-72
2024/02/16 12:10:07;;;;;;;11.40;5.80;;;;;;;14.34;71.60;100112.80;219481;1257;139618;-73
2024/02/16 12:15:13;;;;;;;7.40;5.40;;;;;;;14.48;71.73;100111.35;218655;1259;140158;-71
2024/02/16 12:20:18;;;;;;;9.50;5.70;;;;;;;14.64;71.57;100109.48;216690;1261;140538;-72
2024/02/16 12:25:24;;;;;;;9.90;5.80;;;;;;;14.70;71.09;100105.04;217713;1257;140857;-73
2024/02/16 12:30:28;;;;;;;6.30;5.20;;;;;;;14.77;71.13;100097.40;216972;1257;140688;-72
2024/02/16 12:35:33;;;;;;;8.60;6.70;;;;;;;14.76;70.23;100084.02;216868;1257;140693;-70
2024/02/16 12:40:37;;;;;;;11.30;6.60;;;;;;;14.72;70.24;100083.87;217218;1258;141338;-71
2024/02/16 12:45:42;;;;;;;10.60;6.40;;;;;;;14.70;69.98;100081.23;216814;1257;140150;-72
2024/02/16 12:50:47;;;;;;;8.50;6.90;;;;;;;14.72;70.01;100076.73;216725;1261;140256;-73
2024/02/16 12:55:51;;;;;;;9.30;5.50;;;;;;;14.75;69.63;100074.79;216772;1258;139547;-72
2024/02/16 13:00:55;;;;;;;10.30;5.40;;;;;;;14.79;69.49;100074.51;216626;1259;140325;-72
2024/02/16 13:06:11;;;;;;;4.20;3.20;;;;;;;14.85;69.42;100074.30;216822;1257;141412;-72
2024/02/16 13:11:17;;;;;;;6.10;3.80;;;;;;;14.89;68.92;100071.87;217290;1258;151266;-72
2024/02/16 13:16:22;;;;;;;5.80;3.80;;;;;;;14.92;68.90;100071.14;216816;1259;140685;-74
2024/02/16 13:21:25;;;;;;;6.20;3.90;;;;;;;14.95;68.45;100065.16;216688;1262;140066;-75
2024/02/16 13:26:30;;;;;;;3.70;3.30;;;;;;;14.91;68.01;100064.16;216779;1262;139982;-73
2024/02/16 13:31:34;;;;;;;6.40;4.40;;;;;;;14.87;67.64;100053.33;218038;1257;140387;-73
2024/02/16 13:36:41;;;;;;;5.80;4.00;;;;;;;14.84;67.37;100049.38;216891;1257;140700;-74
2024/02/16 13:41:48;;;;;;;6.70;3.60;;;;;;;14.86;67.50;100047.20;216768;1259;140503;-73
2024/02/16 13:46:51;;;;;;;4.90;3.50;;;;;;;14.84;67.22;100049.65;216647;1258;139923;-72
2024/02/16 13:51:58;;;;;;;5.60;3.40;;;;;;;14.77;66.78;100045.50;219101;1257;140801;-74
2024/02/16 13:57:03;;;;;;;6.40;3.40;;;;;;;14.68;66.47;100044.29;217184;1261;140692;-76
2024/02/16 14:02:08;;;;;;;3.80;3.50;;;;;;;14.67;66.70;100042.35;217023;1260;140102;-73
2024/02/16 14:07:13;;;;;;;6.00;3.60;;;;;;;14.68;66.70;100045.85;219155;1257;139730;-74
2024/02/16 14:12:17;;;;;;;3.90;3.50;;;;;;;14.64;66.47;100041.42;219077;1257;139704;-72
2024/02/16 14:17:22;;;;;;;6.20;3.20;;;;;;;14.55;66.22;100032.90;216741;1261;139949;-73
2024/02/16 14:22:27;;;;;;;6.50;3.90;;;;;;;14.50;66.26;100025.81;217026;1259;139821;-72
2024/02/16 14:27:31;;;;;;;3.50;3.00;;;;;;;14.40;66.07;100023.77;216949;1259;140697;-73
2024/02/16 14:32:35;;;;;;;4.10;3.30;;;;;;;14.29;65.93;100022.36;217764;1261;139634;-76
2024/02/16 14:37:40;;;;;;;9.70;3.30;;;;;;;14.19;65.81;100022.68;217230;1261;140334;-75
2024/02/16 14:42:44;;;;;;;3.60;3.30;;;;;;;14.06;65.72;100021.83;218528;1261;140273;-74
2024/02/16 14:47:48;;;;;;;8.70;4.80;;;;;;;13.95;65.70;100020.05;216887;1261;139600;-66
2024/02/16 14:52:53;;;;;;;4.00;3.60;;;;;;;13.86;65.77;100020.20;217223;1259;139375;-71
2024/02/16 14:57:57;;;;;;;9.20;3.70;;;;;;;13.77;65.71;100020.66;217355;1257;139780;-69
2024/02/16 15:03:03;;;;;;;6.20;3.40;;;;;;;13.65;65.79;100021.17;217527;1258;140251;-71
2024/02/16 15:08:07;;;;;;;5.80;3.00;;;;;;;13.53;66.06;100018.05;217135;1261;140244;-73
2024/02/16 15:13:14;;;;;;;4.80;3.50;;;;;;;13.43;66.07;100021.55;216864;1259;139589;-72
2024/02/16 15:18:18;;;;;;;4.10;3.70;;;;;;;13.33;66.41;100019.55;217346;1259;140415;-73
2024/02/16 15:23:23;;;;;;;7.20;3.60;;;;;;;13.23;66.58;100017.45;216988;1257;139381;-71
2024/02/16 15:28:27;;;;;;;7.40;4.60;;;;;;;13.10;66.52;100012.95;216924;1260;140121;-73
2024/02/16 15:33:31;;;;;;;5.70;4.00;;;;;;;12.96;66.71;100012.73;217391;1261;139540;-71
2024/02/16 15:38:35;;;;;;;5.10;4.50;;;;;;;12.83;66.98;100013.48;217194;1261;139440;-71
2024/02/16 15:43:39;;;;;;;6.70;3.90;;;;;;;12.66;66.80;100012.55;217025;1258;139416;-70
2024/02/16 15:48:46;;;;;;;8.10;3.80;;;;;;;12.51;67.03;100013.09;217331;1260;140583;-72
2024/02/16 15:53:51;;;;;;;4.00;3.50;;;;;;;12.34;67.18;100009.37;217590;1257;139533;-71
2024/02/16 15:58:59;;;;;;;6.50;4.30;;;;;;;12.19;67.33;100002.73;217261;1257;140511;-71
2024/02/16 16:04:03;;;;;;;4.90;3.40;;;;;;;12.04;67.55;100012.00;216917;1261;140665;-70
2024/02/16 16:09:08;;;;;;;4.50;3.40;;;;;;;11.90;67.65;100015.95;217063;1261;140463;-71
2024/02/16 16:14:12;;;;;;;3.60;3.30;;;;;;;11.76;67.97;100015.71;217165;1260;140246;-72
2024/02/16 16:19:16;;;;;;;5.10;3.60;;;;;;;11.64;68.04;100012.86;216818;1257;141135;-75
2024/02/16 16:24:20;;;;;;;5.70;4.10;;;;;;;11.51;68.34;100010.67;216963;1257;140125;-72
2024/02/16 16:29:23;;;;;;;5.30;3.90;;;;;;;11.42;68.62;100012.55;216690;1261;140325;-71
2024/02/16 16:34:29;;;;;;;7.00;4.60;;;;;;;11.33;68.48;100012.72;217720;1258;140355;-71
2024/02/16 16:39:33;;;;;;;6.10;3.70;;;;;;;11.24;68.75;100013.73;217005;1258;377540;-71
2024/02/16 16:44:37;;;;;;;7.40;4.30;;;;;;;11.14;68.97;100009.86;216972;1262;142504;-69
2024/02/16 16:49:41;;;;;;;7.50;5.30;;;;;;;11.05;69.01;100026.91;216783;1259;140097;-70
2024/02/16 16:54:47;;;;;;;5.30;4.70;;;;;;;11.01;69.37;100029.74;216671;1262;140350;-70
2024/02/16 16:59:51;;;;;;;6.00;4.40;;;;;;;10.93;69.30;100029.23;217108;1262;140290;-72
2024/02/16 17:04:56;;;;;;;11.40;5.30;;;;;;;10.81;69.42;100030.52;216918;1262;140235;-70
2024/02/16 17:10:01;;;;;;;9.60;7.10;;;;;;;10.70;69.65;100036.27;216743;1261;141196;-70
2024/02/16 17:15:11;;;;;;;8.50;6.00;;;;;;;10.60;69.62;100034.33;216986;1258;140765;-71
2024/02/16 17:20:39;;;;;;;10.10;6.80;;;;;;;10.49;70.01;100028.44;216698;1260;140405;-72
2024/02/16 17:25:48;;;;;;;13.50;7.50;;;;;;;10.40;69.90;100028.73;217184;1257;140741;-70
2024/02/16 17:30:55;;;;;;;8.30;6.10;;;;;;;10.34;70.33;100037.72;216962;1260;140422;-71
2024/02/16 17:35:59;;;;;;;8.90;5.90;;;;;;;10.27;70.41;100041.55;217010;1258;152007;-68
2024/02/16 17:41:03;;;;;;;12.10;6.00;;;;;;;10.16;70.40;100048.82;217289;1260;140905;-70
2024/02/16 17:46:07;;;;;;;11.20;7.30;;;;;;;10.07;70.41;100051.36;217881;1261;140467;-70
2024/02/16 17:51:11;;;;;;;12.20;8.50;;;;;;;10.00;70.50;100051.81;218720;1259;153631;-72
2024/02/16 17:56:15;;;;;;;15.90;7.70;;;;;;;9.93;70.74;100050.79;217752;1261;140997;-70
2024/02/16 18:01:19;;;;;;;18.70;7.80;;;;;;;9.89;70.95;100053.66;216906;1259;231854;-70
2024/02/16 18:06:23;;;;;;;14.90;8.50;;;;;;;9.85;71.04;100056.69;216959;1260;140552;-69
2024/02/16 18:11:32;;;;;;;11.90;8.30;;;;;;;9.81;71.05;100055.38;216771;1259;140073;-69
2024/02/16 18:16:36;;;;;;;11.80;7.60;;;;;;;9.73;71.22;100058.42;216762;1261;140144;-70
2024/02/16 18:21:40;;;;;;;12.60;7.60;;;;;;;9.68;71.41;100054.30;218303;1257;140515;-72
2024/02/16 18:26:45;;;;;;;11.30;6.50;;;;;;;9.66;71.47;100049.73;216883;1258;143034;-72
2024/02/16 18:31:49;;;;;;;8.40;6.30;;;;;;;9.63;71.61;100047.45;216694;1259;140500;-70
2024/02/16 18:36:54;;;;;;;10.30;6.50;;;;;;;9.60;71.72;100043.23;216795;1260;140852;-70
2024/02/16 18:41:59;;;;;;;8.80;5.60;;;;;;;9.57;71.83;100038.72;216740;1258;141981;-71
2024/02/16 18:47:04;;;;;;;16.60;8.10;;;;;;;9.54;71.84;100035.10;217469;1261;141118;-72
2024/02/16 18:52:09;;;;;;;13.60;7.80;;;;;;;9.51;72.02;100033.90;216830;1261;140762;-70
2024/02/16 18:57:17;;;;;;;12.70;7.10;;;;;;;9.49;72.13;100036.97;216486;1262;140287;-71
2024/02/16 19:02:22;;;;;;;11.30;6.50;;;;;;;9.45;72.28;100043.57;217554;1261;140666;-69
2024/02/16 19:07:26;;;;;;;15.40;7.80;;;;;;;9.39;72.41;100041.74;216540;1262;140660;-69
2024/02/16 19:12:30;;;;;;;9.20;6.80;;;;;;;9.37;72.51;100043.64;217978;1258;140501;-69
2024/02/16 19:17:34;;;;;;;12.70;8.10;;;;;;;9.33;72.72;100030.54;216725;1259;140209;-69
2024/02/16 19:22:39;;;;;;;15.20;9.50;;;;;;;9.30;72.68;100028.06;217103;1260;140472;-72
2024/02/16 19:27:44;;;;;;;10.90;8.20;;;;;;;9.26;72.72;100025.89;217288;1260;141237;-72
2024/02/16 19:32:48;;;;;;;14.30;7.30;;;;;;;9.22;72.74;100032.58;217087;1257;140438;-69
2024/02/16 19:37:53;;;;;;;14.80;8.30;;;;;;;9.19;72.89;100040.19;217315;1261;140490;-71
2024/02/16 19:42:59;;;;;;;18.60;8.80;;;;;;;9.14;73.00;100043.94;217037;1261;140123;-70
2024/02/16 19:48:03;;;;;;;19.70;10.80;;;;;;;9.08;73.00;100046.84;217036;1261;140955;-69
2024/02/16 19:53:10;;;;;;;14.50;9.20;;;;;;;9.05;73.19;100048.86;216955;1260;140217;-70
2024/02/16 19:58:15;;;;;;;23.00;11.00;;;;;;;9.02;73.33;100046.36;216877;1262;140908;-69
2024/02/16 20:03:22;;;;;;;22.40;11.10;;;;;;;8.99;73.69;100038.60;217100;1260;140516;-70
2024/02/16 20:08:28;;;;;;;26.50;11.20;;;;;;;8.98;73.78;100036.40;218377;1260;141628;-69
2024/02/16 20:13:34;;;;;;;21.40;11.50;;;;;;;8.98;73.96;100037.26;217899;1260;140705;-69
2024/02/16 20:18:38;;;;;;;18.90;11.40;;;;;;;8.99;74.23;100036.64;217462;1257;141434;-69
2024/02/16 20:23:43;;;;;;;20.00;11.30;;;;;;;9.00;74.40;100036.67;216953;1257;140644;-69
2024/02/16 20:28:52;;;;;;;22.80;13.00;;;;;;;9.00;74.54;100040.89;217914;1259;141271;-72
2024/02/16 20:33:56;;;;;;;22.50;10.90;;;;;;;8.99;74.70;100037.13;217116;1258;140724;-69
2024/02/16 20:39:02;;;;;;;20.40;12.30;;;;;;;8.99;74.95;100032.38;216928;1259;141634;-70
2024/02/16 20:44:07;;;;;;;19.10;10.80;;;;;;;9.00;74.96;100027.63;217425;1260;140855;-69
2024/02/16 20:49:11;;;;;;;18.50;12.30;;;;;;;8.98;75.14;100020.58;216854;1261;141101;-71
2024/02/16 20:54:15;;;;;;;19.80;11.60;;;;;;;8.95;75.22;100013.71;216834;1261;140411;-70
2024/02/16 20:59:20;;;;;;;19.30;10.40;;;;;;;8.95;75.39;100020.89;216841;1262;141644;-72
2024/02/16 21:04:34;;;;;;;21.70;10.90;;;;;;;8.94;75.56;100019.62;218077;1262;140798;-70
2024/02/16 21:09:38;;;;;;;14.10;9.10;;;;;;;8.92;75.47;100016.27;216939;1261;140377;-71
2024/02/16 21:14:42;;;;;;;17.00;9.50;;;;;;;8.94;75.64;100016.95;217581;1257;141362;-74
2024/02/16 21:19:46;;;;;;;15.60;8.50;;;;;;;8.96;75.76;100016.29;216929;1262;140715;-70
2024/02/16 21:24:51;;;;;;;14.10;9.00;;;;;;;8.99;75.69;100017.87;217302;1262;141790;-73
2024/02/16 21:29:56;;;;;;;12.80;6.70;;;;;;;9.01;75.74;100016.78;218276;1260;140262;-70
2024/02/16 21:35:11;;;;;;;9.90;6.10;;;;;;;9.03;75.66;100015.71;217328;1258;140552;-71
2024/02/16 21:40:17;;;;;;;10.60;7.30;;;;;;;9.02;75.62;100010.84;216885;1262;141064;-69
2024/02/16 21:45:22;;;;;;;12.10;7.20;;;;;;;9.01;75.72;100007.83;218114;1261;141371;-72
2024/02/16 21:50:28;;;;;;;14.60;6.60;;;;;;;9.02;75.75;100010.20;219333;1261;141359;-71
2024/02/16 21:55:32;;;;;;;10.40;7.00;;;;;;;9.02;75.82;100008.19;219737;1257;140587;-69
2024/02/16 22:00:36;;;;;;;16.80;8.60;;;;;;;9.03;75.75;100007.02;219494;1260;142239;-69
2024/02/16 22:05:41;;;;;;;14.50;7.90;;;;;;;9.04;75.66;100004.70;217728;1261;140192;-69
2024/02/16 22:10:45;;;;;;;16.30;9.30;;;;;;;9.03;75.84;100002.13;218484;1259;140688;-72
2024/02/16 22:15:51;;;;;;;13.00;8.80;;;;;;;9.05;75.93;100011.67;217325;1262;140613;-69
2024/02/16 22:20:55;;;;;;;12.50;8.90;;;;;;;9.05;75.93;100011.80;217211;1263;141474;-69
2024/02/16 22:26:00;;;;;;;12.10;7.20;;;;;;;9.04;76.05;100016.02;217949;1262;140773;-70
2024/02/16 22:31:04;;;;;;;9.80;8.00;;;;;;;9.04;76.05;100015.98;217215;1262;142217;-69
2024/02/16 22:36:09;;;;;;;9.20;6.20;;;;;;;9.02;76.04;100018.73;217251;1257;140722;-68
2024/02/16 22:41:16;;;;;;;10.50;6.80;;;;;;;9.01;76.17;100023.86;217124;1258;140431;-69
2024/02/16 22:46:21;;;;;;;9.40;6.20;;;;;;;9.00;76.11;100026.73;216849;1263;141086;-69
2024/02/16 22:51:25;;;;;;;10.30;6.40;;;;;;;8.99;76.20;100024.33;216897;1263;140190;-71
2024/02/16 22:56:42;;;;;;;11.50;7.20;;;;;;;9.00;76.27;100030.94;217203;1262;140126;-69